sensor_id;sensor_type;location;lat;lon;timestamp;temperature;humidity
9965;DHT22;5023;53.554;9.964;2024-02-21T00:03:23;9.50;99.90
9965;DHT22;5023;53.554;9.964;2024-02-21T00:08:25;9.50;99.90
9965;DHT22;5023;53.554;9.964;2024-02-21T00:13:30;9.50;99.90
9965;DHT22;5023;53.554;9.964;2024-02-21T00:18:32;9.40;99.90
9965;DHT22;5023;53.554;9.964;2024-02-21T00:23:34;9.40;99.90
9965;DHT22;5023;53.554;9.964;2024-02-21T00:28:37;9.40;99.90
9965;DHT22;5023;53.554;9.964;2024-02-21T00:33:39;9.40;99.90
9965;DHT22;5023;53.554;9.964;2024-02-21T00:38:42;9.40;99.90
9965;DHT22;5023;53.554;9.964;2024-02-21T00:43:45;9.40;99.90
9965;DHT22;5023;53.554;9.964;2024-02-21T00:48:49;9.40;99.90
9965;DHT22;5023;53.554;9.964;2024-02-21T00:53:51;9.30;99.90
9965;DHT22;5023;53.554;9.964;2024-02-21T00:58:54;9.30;99.90
9965;DHT22;5023;53.554;9.964;2024-02-21T01:03:56;9.40;99.90
9965;DHT22;5023;53.554;9.964;2024-02-21T01:08:58;9.40;99.90
9965;DHT22;5023;53.554;9.964;2024-02-21T01:14:01;9.40;99.90
9965;DHT22;5023;53.554;9.964;2024-02-21T01:19:03;9.40;99.90
9965;DHT22;5023;53.554;9.964;2024-02-21T01:24:05;9.50;99.90
9965;DHT22;5023;53.554;9.964;2024-02-21T01:29:08;9.40;99.90
9965;DHT22;5023;53.554;9.964;2024-02-21T01:34:10;9.40;99.90
9965;DHT22;5023;53.554;9.964;2024-02-21T01:39:12;9.40;99.90
9965;DHT22;5023;53.554;9.964;2024-02-21T01:44:15;9.40;99.90
9965;DHT22;5023;53.554;9.964;2024-02-21T01:49:17;9.40;99.90
9965;DHT22;5023;53.554;9.964;2024-02-21T01:54:20;9.40;99.90
9965;DHT22;5023;53.554;9.964;2024-02-21T01:59:23;9.40;99.90
9965;DHT22;5023;53.554;9.964;2024-02-21T02:04:26;9.30;99.90
9965;DHT22;5023;53.554;9.964;2024-02-21T02:09:28;9.20;99.90
9965;DHT22;5023;53.554;9.964;2024-02-21T02:14:31;9.30;99.90
9965;DHT22;5023;53.554;9.964;2024-02-21T02:19:33;9.20;99.90
9965;DHT22;5023;53.554;9.964;2024-02-21T02:24:36;9.20;99.90
9965;DHT22;5023;53.554;9.964;2024-02-21T02:29:38;9.20;99.90
9965;DHT22;5023;53.554;9.964;2024-02-21T02:34:40;9.20;99.90
9965;DHT22;5023;53.554;9.964;2024-02-21T02:39:43;9.20;99.90
9965;DHT22;5023;53.554;9.964;2024-02-21T02:44:45;9.30;99.90
9965;DHT22;5023;53.554;9.964;2024-02-21T02:49:47;9.20;99.90
9965;DHT22;5023;53.554;9.964;2024-02-21T02:54:52;9.30;99.90
9965;DHT22;5023;53.554;9.964;2024-02-21T02:59:56;9.30;99.90
9965;DHT22;5023;53.554;9.964;2024-02-21T03:04:58;9.30;99.90
9965;DHT22;5023;53.554;9.964;2024-02-21T03:10:01;9.30;99.90
9965;DHT22;5023;53.554;9.964;2024-02-21T03:15:04;9.40;99.90
9965;DHT22;5023;53.554;9.964;2024-02-21T03:20:07;9.30;99.90
9965;DHT22;5023;53.554;9.964;2024-02-21T03:25:11;9.30;99.90
9965;DHT22;5023;53.554;9.964;2024-02-21T03:30:15;9.30;99.90
9965;DHT22;5023;53.554;9.964;2024-02-21T03:35:17;9.30;99.90
9965;DHT22;5023;53.554;9.964;2024-02-21T03:40:21;9.40;99.90
9965;DHT22;5023;53.554;9.964;2024-02-21T03:45:23;9.40;99.90
9965;DHT22;5023;53.554;9.964;2024-02-21T03:50:25;9.40;99.90
9965;DHT22;5023;53.554;9.964;2024-02-21T03:55:29;9.50;99.90
9965;DHT22;5023;53.554;9.964;2024-02-21T04:00:31;9.50;99.90
9965;DHT22;5023;53.554;9.964;2024-02-21T04:05:33;9.50;99.90
9965;DHT22;5023;53.554;9.964;2024-02-21T04:10:36;9.50;99.90
9965;DHT22;5023;53.554;9.964;2024-02-21T04:15:38;9.50;99.90
9965;DHT22;5023;53.554;9.964;2024-02-21T04:20:40;9.40;99.90
9965;DHT22;5023;53.554;9.964;2024-02-21T04:25:43;9.30;99.90
9965;DHT22;5023;53.554;9.964;2024-02-21T04:30:45;9.30;99.90
9965;DHT22;5023;53.554;9.964;2024-02-21T04:35:47;9.30;99.90
9965;DHT22;5023;53.554;9.964;2024-02-21T04:40:50;9.30;99.90
9965;DHT22;5023;53.554;9.964;2024-02-21T04:45:52;9.30;99.90
9965;DHT22;5023;53.554;9.964;2024-02-21T04:50:54;9.20;99.90
9965;DHT22;5023;53.554;9.964;2024-02-21T04:55:58;9.20;99.90
9965;DHT22;5023;53.554;9.964;2024-02-21T05:00:59;9.20;99.90
9965;DHT22;5023;53.554;9.964;2024-02-21T05:06:01;9.30;99.90
9965;DHT22;5023;53.554;9.964;2024-02-21T05:11:05;9.20;99.90
9965;DHT22;5023;53.554;9.964;2024-02-21T05:16:07;9.10;99.90
9965;DHT22;5023;53.554;9.964;2024-02-21T05:21:09;9.10;99.90
9965;DHT22;5023;53.554;9.964;2024-02-21T05:26:20;9.10;99.90
9965;DHT22;5023;53.554;9.964;2024-02-21T05:31:23;9.10;99.90
9965;DHT22;5023;53.554;9.964;2024-02-21T05:36:24;9.10;99.90
9965;DHT22;5023;53.554;9.964;2024-02-21T05:41:30;9.10;99.90
9965;DHT22;5023;53.554;9.964;2024-02-21T05:46:32;9.10;99.90
9965;DHT22;5023;53.554;9.964;2024-02-21T05:51:34;9.10;99.90
9965;DHT22;5023;53.554;9.964;2024-02-21T05:56:37;9.00;99.90
9965;DHT22;5023;53.554;9.964;2024-02-21T06:01:39;9.10;99.90
9965;DHT22;5023;53.554;9.964;2024-02-21T06:06:41;9.10;99.90
9965;DHT22;5023;53.554;9.964;2024-02-21T06:11:45;9.10;99.90
9965;DHT22;5023;53.554;9.964;2024-02-21T06:16:49;9.10;99.90
9965;DHT22;5023;53.554;9.964;2024-02-21T06:21:51;9.10;99.90
9965;DHT22;5023;53.554;9.964;2024-02-21T06:26:54;9.10;99.90
9965;DHT22;5023;53.554;9.964;2024-02-21T06:31:56;9.10;99.90
9965;DHT22;5023;53.554;9.964;2024-02-21T06:37:00;9.00;99.90
9965;DHT22;5023;53.554;9.964;2024-02-21T06:42:04;9.00;99.90
9965;DHT22;5023;53.554;9.964;2024-02-21T06:47:06;9.10;99.90
9965;DHT22;5023;53.554;9.964;2024-02-21T06:52:09;9.10;99.90
9965;DHT22;5023;53.554;9.964;2024-02-21T06:57:12;9.10;99.90
9965;DHT22;5023;53.554;9.964;2024-02-21T07:02:14;9.10;99.90
9965;DHT22;5023;53.554;9.964;2024-02-21T07:07:16;9.20;99.90
9965;DHT22;5023;53.554;9.964;2024-02-21T07:12:20;9.10;99.90
9965;DHT22;5023;53.554;9.964;2024-02-21T07:17:22;9.10;99.90
9965;DHT22;5023;53.554;9.964;2024-02-21T07:22:23;9.10;99.90
9965;DHT22;5023;53.554;9.964;2024-02-21T07:27:27;9.20;99.90
9965;DHT22;5023;53.554;9.964;2024-02-21T07:32:31;9.20;99.90
9965;DHT22;5023;53.554;9.964;2024-02-21T07:37:33;9.20;99.90
9965;DHT22;5023;53.554;9.964;2024-02-21T07:42:37;9.30;99.90
9965;DHT22;5023;53.554;9.964;2024-02-21T07:47:39;9.30;99.90
9965;DHT22;5023;53.554;9.964;2024-02-21T07:52:41;9.30;99.90
9965;DHT22;5023;53.554;9.964;2024-02-21T07:57:45;9.30;99.90
9965;DHT22;5023;53.554;9.964;2024-02-21T08:02:48;9.30;99.90
9965;DHT22;5023;53.554;9.964;2024-02-21T08:07:50;9.20;99.90
9965;DHT22;5023;53.554;9.964;2024-02-21T08:12:53;9.30;99.90
9965;DHT22;5023;53.554;9.964;2024-02-21T08:17:55;9.30;99.90
9965;DHT22;5023;53.554;9.964;2024-02-21T08:23:00;9.30;99.90
9965;DHT22;5023;53.554;9.964;2024-02-21T08:28:05;9.40;99.90
9965;DHT22;5023;53.554;9.964;2024-02-21T08:33:08;9.40;99.90
9965;DHT22;5023;53.554;9.964;2024-02-21T08:38:13;9.30;99.90
9965;DHT22;5023;53.554;9.964;2024-02-21T08:43:16;9.20;99.90
9965;DHT22;5023;53.554;9.964;2024-02-21T08:48:18;9.30;99.90
9965;DHT22;5023;53.554;9.964;2024-02-21T08:53:20;9.20;99.90
9965;DHT22;5023;53.554;9.964;2024-02-21T08:58:24;9.10;99.90
9965;DHT22;5023;53.554;9.964;2024-02-21T09:03:27;9.30;99.90
9965;DHT22;5023;53.554;9.964;2024-02-21T09:08:29;9.20;99.90
9965;DHT22;5023;53.554;9.964;2024-02-21T09:13:32;9.10;99.90
9965;DHT22;5023;53.554;9.964;2024-02-21T09:18:34;9.10;99.90
9965;DHT22;5023;53.554;9.964;2024-02-21T09:23:36;9.10;99.90
9965;DHT22;5023;53.554;9.964;2024-02-21T09:28:42;9.20;99.90
9965;DHT22;5023;53.554;9.964;2024-02-21T09:33:44;9.20;99.90
9965;DHT22;5023;53.554;9.964;2024-02-21T09:38:46;9.20;99.90
9965;DHT22;5023;53.554;9.964;2024-02-21T09:43:50;9.30;99.90
9965;DHT22;5023;53.554;9.964;2024-02-21T09:49:04;9.30;99.90
9965;DHT22;5023;53.554;9.964;2024-02-21T09:54:08;9.20;99.90
9965;DHT22;5023;53.554;9.964;2024-02-21T09:59:12;9.30;99.90
9965;DHT22;5023;53.554;9.964;2024-02-21T10:04:14;9.30;99.90
9965;DHT22;5023;53.554;9.964;2024-02-21T10:09:23;9.40;99.90
9965;DHT22;5023;53.554;9.964;2024-02-21T10:14:29;9.40;99.90
9965;DHT22;5023;53.554;9.964;2024-02-21T10:19:32;9.40;99.90
9965;DHT22;5023;53.554;9.964;2024-02-21T10:24:35;9.50;99.90
9965;DHT22;5023;53.554;9.964;2024-02-21T10:29:41;9.60;99.90
9965;DHT22;5023;53.554;9.964;2024-02-21T10:34:43;9.50;99.90
9965;DHT22;5023;53.554;9.964;2024-02-21T10:39:46;9.60;99.90
9965;DHT22;5023;53.554;9.964;2024-02-21T10:44:51;9.60;99.90
9965;DHT22;5023;53.554;9.964;2024-02-21T10:50:01;9.60;99.90
9965;DHT22;5023;53.554;9.964;2024-02-21T10:55:09;9.70;99.90
9965;DHT22;5023;53.554;9.964;2024-02-21T11:00:15;9.70;99.90
9965;DHT22;5023;53.554;9.964;2024-02-21T11:05:19;9.70;99.90
9965;DHT22;5023;53.554;9.964;2024-02-21T11:10:23;9.80;99.90
9965;DHT22;5023;53.554;9.964;2024-02-21T11:15:27;9.80;99.90
9965;DHT22;5023;53.554;9.964;2024-02-21T11:20:32;9.80;99.90
9965;DHT22;5023;53.554;9.964;2024-02-21T11:25:35;9.80;99.90
9965;DHT22;5023;53.554;9.964;2024-02-21T11:30:39;9.90;99.90
9965;DHT22;5023;53.554;9.964;2024-02-21T11:35:44;9.80;99.90
9965;DHT22;5023;53.554;9.964;2024-02-21T11:40:47;9.80;99.90
9965;DHT22;5023;53.554;9.964;2024-02-21T11:45:50;9.80;99.90
9965;DHT22;5023;53.554;9.964;2024-02-21T11:50:55;9.70;99.90
9965;DHT22;5023;53.554;9.964;2024-02-21T11:55:57;9.80;99.90
9965;DHT22;5023;53.554;9.964;2024-02-21T12:01:01;9.80;99.90
9965;DHT22;5023;53.554;9.964;2024-02-21T12:06:03;9.90;99.90
9965;DHT22;5023;53.554;9.964;2024-02-21T12:11:16;9.90;99.90
9965;DHT22;5023;53.554;9.964;2024-02-21T12:16:20;9.90;99.90
9965;DHT22;5023;53.554;9.964;2024-02-21T12:21:24;9.80;99.90
9965;DHT22;5023;53.554;9.964;2024-02-21T12:26:28;9.90;99.90
9965;DHT22;5023;53.554;9.964;2024-02-21T12:31:32;9.90;99.90
9965;DHT22;5023;53.554;9.964;2024-02-21T12:36:35;9.90;99.90
9965;DHT22;5023;53.554;9.964;2024-02-21T12:41:38;9.90;99.90
9965;DHT22;5023;53.554;9.964;2024-02-21T12:46:42;9.90;99.90
9965;DHT22;5023;53.554;9.964;2024-02-21T12:51:44;9.80;99.90
9965;DHT22;5023;53.554;9.964;2024-02-21T12:56:49;9.80;99.90
9965;DHT22;5023;53.554;9.964;2024-02-21T13:01:53;9.90;99.90
9965;DHT22;5023;53.554;9.964;2024-02-21T13:06:55;9.80;99.90
9965;DHT22;5023;53.554;9.964;2024-02-21T13:11:57;9.90;99.90
9965;DHT22;5023;53.554;9.964;2024-02-21T13:17:00;10.00;99.90
9965;DHT22;5023;53.554;9.964;2024-02-21T13:22:02;10.10;99.90
9965;DHT22;5023;53.554;9.964;2024-02-21T13:27:05;10.20;99.90
9965;DHT22;5023;53.554;9.964;2024-02-21T13:32:08;10.20;99.90
9965;DHT22;5023;53.554;9.964;2024-02-21T13:37:10;10.20;99.90
9965;DHT22;5023;53.554;9.964;2024-02-21T13:42:12;10.20;99.90
9965;DHT22;5023;53.554;9.964;2024-02-21T13:47:16;10.20;99.90
9965;DHT22;5023;53.554;9.964;2024-02-21T13:52:17;10.30;99.90
9965;DHT22;5023;53.554;9.964;2024-02-21T13:57:21;10.40;99.90
9965;DHT22;5023;53.554;9.964;2024-02-21T14:02:24;10.40;99.90
9965;DHT22;5023;53.554;9.964;2024-02-21T14:07:26;10.40;99.90
9965;DHT22;5023;53.554;9.964;2024-02-21T14:12:29;10.50;99.90
9965;DHT22;5023;53.554;9.964;2024-02-21T14:17:33;10.60;99.90
9965;DHT22;5023;53.554;9.964;2024-02-21T14:22:35;10.60;99.90
9965;DHT22;5023;53.554;9.964;2024-02-21T14:27:38;10.70;99.90
9965;DHT22;5023;53.554;9.964;2024-02-21T14:32:43;10.70;99.90
9965;DHT22;5023;53.554;9.964;2024-02-21T14:37:46;10.80;99.90
9965;DHT22;5023;53.554;9.964;2024-02-21T14:42:49;10.80;99.90
9965;DHT22;5023;53.554;9.964;2024-02-21T14:47:54;10.80;99.90
9965;DHT22;5023;53.554;9.964;2024-02-21T14:52:56;10.90;99.90
9965;DHT22;5023;53.554;9.964;2024-02-21T14:57:58;10.80;99.90
9965;DHT22;5023;53.554;9.964;2024-02-21T15:03:02;10.90;99.90
9965;DHT22;5023;53.554;9.964;2024-02-21T15:08:06;10.80;99.90
9965;DHT22;5023;53.554;9.964;2024-02-21T15:13:08;10.70;99.90
9965;DHT22;5023;53.554;9.964;2024-02-21T15:18:11;10.70;99.90
9965;DHT22;5023;53.554;9.964;2024-02-21T15:23:13;10.70;99.90
9965;DHT22;5023;53.554;9.964;2024-02-21T15:28:16;10.80;99.90
9965;DHT22;5023;53.554;9.964;2024-02-21T15:33:19;10.80;99.90
9965;DHT22;5023;53.554;9.964;2024-02-21T15:38:21;10.70;99.90
9965;DHT22;5023;53.554;9.964;2024-02-21T15:43:23;10.70;99.90
9965;DHT22;5023;53.554;9.964;2024-02-21T15:48:26;10.70;99.90
9965;DHT22;5023;53.554;9.964;2024-02-21T15:53:28;10.70;99.90
9965;DHT22;5023;53.554;9.964;2024-02-21T15:58:30;10.70;99.90
9965;DHT22;5023;53.554;9.964;2024-02-21T16:03:34;10.70;99.90
9965;DHT22;5023;53.554;9.964;2024-02-21T16:08:36;10.70;99.90
9965;DHT22;5023;53.554;9.964;2024-02-21T16:13:41;10.60;99.90
9965;DHT22;5023;53.554;9.964;2024-02-21T16:18:44;10.60;99.90
9965;DHT22;5023;53.554;9.964;2024-02-21T16:23:47;10.50;99.90
9965;DHT22;5023;53.554;9.964;2024-02-21T16:28:49;10.40;99.90
9965;DHT22;5023;53.554;9.964;2024-02-21T16:33:52;10.30;99.90
9965;DHT22;5023;53.554;9.964;2024-02-21T16:38:55;10.40;99.90
9965;DHT22;5023;53.554;9.964;2024-02-21T16:44:00;10.40;99.90
9965;DHT22;5023;53.554;9.964;2024-02-21T16:49:03;10.40;99.90
9965;DHT22;5023;53.554;9.964;2024-02-21T16:54:07;10.40;99.90
9965;DHT22;5023;53.554;9.964;2024-02-21T16:59:10;10.40;99.90
9965;DHT22;5023;53.554;9.964;2024-02-21T17:04:14;10.40;99.90
9965;DHT22;5023;53.554;9.964;2024-02-21T17:09:16;10.40;99.90
9965;DHT22;5023;53.554;9.964;2024-02-21T17:14:18;10.30;99.90
9965;DHT22;5023;53.554;9.964;2024-02-21T17:19:21;10.30;99.90
9965;DHT22;5023;53.554;9.964;2024-02-21T17:24:23;10.20;99.90
9965;DHT22;5023;53.554;9.964;2024-02-21T17:29:27;10.20;99.90
9965;DHT22;5023;53.554;9.964;2024-02-21T17:34:31;10.20;99.90
9965;DHT22;5023;53.554;9.964;2024-02-21T17:39:32;10.10;99.90
9965;DHT22;5023;53.554;9.964;2024-02-21T17:44:35;10.20;99.90
9965;DHT22;5023;53.554;9.964;2024-02-21T17:49:40;10.20;99.90
9965;DHT22;5023;53.554;9.964;2024-02-21T17:54:44;10.10;99.90
9965;DHT22;5023;53.554;9.964;2024-02-21T17:59:47;10.10;99.90
9965;DHT22;5023;53.554;9.964;2024-02-21T18:04:51;10.10;99.90
9965;DHT22;5023;53.554;9.964;2024-02-21T18:09:53;10.10;99.90
9965;DHT22;5023;53.554;9.964;2024-02-21T18:14:57;10.00;99.90
9965;DHT22;5023;53.554;9.964;2024-02-21T18:20:00;10.00;99.90
9965;DHT22;5023;53.554;9.964;2024-02-21T18:25:05;9.90;99.90
9965;DHT22;5023;53.554;9.964;2024-02-21T18:30:09;9.80;99.90
9965;DHT22;5023;53.554;9.964;2024-02-21T18:35:15;9.80;99.90
9965;DHT22;5023;53.554;9.964;2024-02-21T18:40:17;9.70;99.90
9965;DHT22;5023;53.554;9.964;2024-02-21T18:45:21;9.70;99.90
9965;DHT22;5023;53.554;9.964;2024-02-21T18:50:25;9.70;99.90
9965;DHT22;5023;53.554;9.964;2024-02-21T18:55:29;9.70;99.90
9965;DHT22;5023;53.554;9.964;2024-02-21T19:00:31;9.70;99.90
9965;DHT22;5023;53.554;9.964;2024-02-21T19:05:35;9.60;99.90
9965;DHT22;5023;53.554;9.964;2024-02-21T19:10:36;9.60;99.90
9965;DHT22;5023;53.554;9.964;2024-02-21T19:15:38;9.70;99.90
9965;DHT22;5023;53.554;9.964;2024-02-21T19:20:45;9.70;99.90
9965;DHT22;5023;53.554;9.964;2024-02-21T19:25:48;9.60;99.90
9965;DHT22;5023;53.554;9.964;2024-02-21T19:30:50;9.60;99.90
9965;DHT22;5023;53.554;9.964;2024-02-21T19:35:55;9.60;99.90
9965;DHT22;5023;53.554;9.964;2024-02-21T19:40:57;9.60;99.90
9965;DHT22;5023;53.554;9.964;2024-02-21T19:46:00;9.50;99.90
9965;DHT22;5023;53.554;9.964;2024-02-21T19:51:06;9.60;99.90
9965;DHT22;5023;53.554;9.964;2024-02-21T19:56:08;9.60;99.90
9965;DHT22;5023;53.554;9.964;2024-02-21T20:01:16;9.60;99.90
9965;DHT22;5023;53.554;9.964;2024-02-21T20:06:19;9.60;99.90
9965;DHT22;5023;53.554;9.964;2024-02-21T20:11:21;9.70;99.90
9965;DHT22;5023;53.554;9.964;2024-02-21T20:16:23;9.80;99.90
9965;DHT22;5023;53.554;9.964;2024-02-21T20:21:27;9.80;99.90
9965;DHT22;5023;53.554;9.964;2024-02-21T20:26:30;9.80;99.90
9965;DHT22;5023;53.554;9.964;2024-02-21T20:31:38;9.80;99.90
9965;DHT22;5023;53.554;9.964;2024-02-21T20:36:43;9.80;99.90
9965;DHT22;5023;53.554;9.964;2024-02-21T20:41:45;9.70;99.90
9965;DHT22;5023;53.554;9.964;2024-02-21T20:46:48;9.70;99.90
9965;DHT22;5023;53.554;9.964;2024-02-21T20:51:51;9.60;99.90
9965;DHT22;5023;53.554;9.964;2024-02-21T20:56:53;9.60;99.90
9965;DHT22;5023;53.554;9.964;2024-02-21T21:01:55;9.60;99.90
9965;DHT22;5023;53.554;9.964;2024-02-21T21:06:58;9.50;99.90
9965;DHT22;5023;53.554;9.964;2024-02-21T21:12:00;9.40;99.90
9965;DHT22;5023;53.554;9.964;2024-02-21T21:17:04;9.40;99.90
9965;DHT22;5023;53.554;9.964;2024-02-21T21:22:09;9.40;99.90
9965;DHT22;5023;53.554;9.964;2024-02-21T21:27:11;9.30;99.90
9965;DHT22;5023;53.554;9.964;2024-02-21T21:32:17;9.30;99.90
9965;DHT22;5023;53.554;9.964;2024-02-21T21:37:20;9.30;99.90
9965;DHT22;5023;53.554;9.964;2024-02-21T21:42:22;9.20;99.90
9965;DHT22;5023;53.554;9.964;2024-02-21T21:47:24;9.20;99.90
9965;DHT22;5023;53.554;9.964;2024-02-21T21:52:28;9.10;99.90
9965;DHT22;5023;53.554;9.964;2024-02-21T21:57:31;9.00;99.90
9965;DHT22;5023;53.554;9.964;2024-02-21T22:02:33;9.00;99.90
9965;DHT22;5023;53.554;9.964;2024-02-21T22:07:36;9.10;99.90
9965;DHT22;5023;53.554;9.964;2024-02-21T22:12:38;9.00;99.90
9965;DHT22;5023;53.554;9.964;2024-02-21T22:17:40;9.00;99.90
9965;DHT22;5023;53.554;9.964;2024-02-21T22:22:43;8.90;99.90
9965;DHT22;5023;53.554;9.964;2024-02-21T22:27:45;8.90;99.90
9965;DHT22;5023;53.554;9.964;2024-02-21T22:32:48;9.00;99.90
9965;DHT22;5023;53.554;9.964;2024-02-21T22:37:53;9.10;99.90
9965;DHT22;5023;53.554;9.964;2024-02-21T22:42:55;8.90;99.90
9965;DHT22;5023;53.554;9.964;2024-02-21T22:47:57;8.90;99.90
9965;DHT22;5023;53.554;9.964;2024-02-21T22:53:00;8.90;99.90
9965;DHT22;5023;53.554;9.964;2024-02-21T22:58:02;8.90;99.90
9965;DHT22;5023;53.554;9.964;2024-02-21T23:03:04;8.90;99.90
9965;DHT22;5023;53.554;9.964;2024-02-21T23:08:09;8.90;99.90
9965;DHT22;5023;53.554;9.964;2024-02-21T23:13:11;8.80;99.90
9965;DHT22;5023;53.554;9.964;2024-02-21T23:18:13;8.90;99.90
9965;DHT22;5023;53.554;9.964;2024-02-21T23:23:16;8.80;99.90
9965;DHT22;5023;53.554;9.964;2024-02-21T23:28:18;8.80;99.90
9965;DHT22;5023;53.554;9.964;2024-02-21T23:33:20;8.90;99.90
9965;DHT22;5023;53.554;9.964;2024-02-21T23:38:23;8.80;99.90
9965;DHT22;5023;53.554;9.964;2024-02-21T23:43:25;8.80;99.90
9965;DHT22;5023;53.554;9.964;2024-02-21T23:48:28;8.70;99.90
9965;DHT22;5023;53.554;9.964;2024-02-21T23:53:31;8.60;99.90
9965;DHT22;5023;53.554;9.964;2024-02-21T23:58:33;8.70;99.90
